createdAt,value
2017-10-18T00:00:07.510Z,75.16
2017-10-18T00:02:33.946Z,74.96
2017-10-18T00:05:00.380Z,74.91
2017-10-18T00:07:26.814Z,74.56
2017-10-18T00:09:54.020Z,74.11
2017-10-18T00:12:20.401Z,74.53
2017-10-18T00:14:46.836Z,74.13
2017-10-18T00:17:13.269Z,73.64
2017-10-18T00:19:39.708Z,73.84
2017-10-18T00:22:06.142Z,74.05
2017-10-18T00:24:32.577Z,74.25
2017-10-18T00:26:59.854Z,74.55
2017-10-18T00:29:26.264Z,74.68
2017-10-18T00:31:52.699Z,75.20
2017-10-18T00:34:19.114Z,75.67
2017-10-18T00:36:45.551Z,75.65
2017-10-18T00:39:12.004Z,75.30
2017-10-18T00:41:38.540Z,74.89
2017-10-18T00:44:05.594Z,74.93
2017-10-18T00:46:32.024Z,74.77
2017-10-18T00:48:58.439Z,74.47
2017-10-18T00:51:24.880Z,74.78
2017-10-18T00:53:51.330Z,75.03
2017-10-18T00:56:17.763Z,74.94
2017-10-18T00:58:44.198Z,74.71
2017-10-18T01:01:11.350Z,74.65
2017-10-18T01:03:37.785Z,74.46
2017-10-18T01:06:04.220Z,74.35
2017-10-18T01:08:30.654Z,74.24
2017-10-18T01:10:57.191Z,74.03
2017-10-18T01:13:23.626Z,74.06
2017-10-18T01:15:50.011Z,74.16
2017-10-18T01:18:17.216Z,74.75
2017-10-18T01:20:43.654Z,74.56
2017-10-18T01:23:10.030Z,74.63
2017-10-18T01:25:36.518Z,74.75
2017-10-18T01:28:02.952Z,74.73
2017-10-18T01:30:29.496Z,74.76
2017-10-18T01:32:56.028Z,74.72
2017-10-18T01:35:22.461Z,74.90
2017-10-18T01:37:48.903Z,75.04
2017-10-18T01:40:15.332Z,75.00
2017-10-18T01:42:41.767Z,75.00
2017-10-18T01:45:08.201Z,74.53
2017-10-18T01:47:34.635Z,74.31
2017-10-18T01:50:01.074Z,74.70
2017-10-18T01:52:28.325Z,75.04
2017-10-18T01:54:54.687Z,75.10
2017-10-18T01:57:21.093Z,75.32
2017-10-18T01:59:47.479Z,75.43
2017-10-18T02:02:13.964Z,75.29
2017-10-18T02:04:40.397Z,74.74
2017-10-18T02:07:06.831Z,74.45
2017-10-18T02:09:34.031Z,74.22
2017-10-18T02:12:00.472Z,74.19
2017-10-18T02:14:26.852Z,73.99
2017-10-18T02:16:53.287Z,73.85
2017-10-18T02:19:20.134Z,74.01
2017-10-18T02:21:46.524Z,74.38
2017-10-18T02:24:12.989Z,75.18
2017-10-18T02:26:40.039Z,75.33
2017-10-18T02:29:06.485Z,75.24
2017-10-18T02:31:32.920Z,75.11
2017-10-18T02:33:59.307Z,74.94
2017-10-18T02:36:25.777Z,75.06
2017-10-18T02:38:52.219Z,74.90
2017-10-18T02:41:18.664Z,74.53
2017-10-18T02:43:45.852Z,73.96
2017-10-18T02:46:12.340Z,74.20
2017-10-18T02:48:38.784Z,74.43
2017-10-18T02:51:05.218Z,74.90
2017-10-18T02:53:31.603Z,74.76
2017-10-18T02:55:58.035Z,74.90
2017-10-18T02:58:24.471Z,74.81
2017-10-18T03:00:51.673Z,74.75
2017-10-18T03:03:18.109Z,74.60
2017-10-18T03:05:44.543Z,73.65
2017-10-18T03:08:10.977Z,73.62
2017-10-18T03:10:37.416Z,74.19
2017-10-18T03:13:03.849Z,74.70
2017-10-18T03:15:30.284Z,74.79
2017-10-18T03:17:57.433Z,75.13
2017-10-18T03:20:23.868Z,75.16
2017-10-18T03:22:50.410Z,75.26
2017-10-18T03:25:16.842Z,75.32
2017-10-18T03:27:43.277Z,75.56
2017-10-18T03:30:09.717Z,76.54
2017-10-18T03:32:36.250Z,77.30
2017-10-18T03:35:03.502Z,77.16
2017-10-18T03:37:29.939Z,76.91
2017-10-18T03:39:56.352Z,76.46
2017-10-18T03:42:22.705Z,75.97
2017-10-18T03:47:21.706Z,76.26
2017-10-18T03:49:48.146Z,76.85
2017-10-18T03:52:14.613Z,77.26
2017-10-18T03:54:41.133Z,77.47
2017-10-18T03:57:07.560Z,77.33
2017-10-18T03:59:33.951Z,76.65
2017-10-18T04:02:00.409Z,75.22
2017-10-18T04:04:26.852Z,74.57
2017-10-18T04:06:53.254Z,74.13
2017-10-18T04:09:19.733Z,74.61
2017-10-18T04:11:46.169Z,75.26
2017-10-18T04:14:12.694Z,75.58
2017-10-18T04:16:39.243Z,75.69
2017-10-18T04:19:06.293Z,75.24
2017-10-18T04:21:32.728Z,74.60
2017-10-18T04:23:59.166Z,74.59
2017-10-18T04:26:25.597Z,75.85
2017-10-18T04:28:52.034Z,76.34
2017-10-18T04:31:18.568Z,76.52
2017-10-18T04:33:45.004Z,76.39
2017-10-18T04:36:12.158Z,76.21
2017-10-18T04:38:38.590Z,76.25
2017-10-18T04:41:05.029Z,76.27
2017-10-18T04:43:31.459Z,75.91
2017-10-18T04:45:57.909Z,75.92
2017-10-18T04:48:24.432Z,75.81
2017-10-18T04:50:50.882Z,75.47
2017-10-18T04:53:18.072Z,75.20
2017-10-18T04:55:44.556Z,75.16
2017-10-18T04:58:11.093Z,74.95
2017-10-18T05:00:37.527Z,74.92
2017-10-18T05:03:03.963Z,74.45
2017-10-18T05:05:30.397Z,74.51
2017-10-18T05:07:56.876Z,73.38
2017-10-18T05:10:24.045Z,72.88
2017-10-18T05:12:50.534Z,72.98
2017-10-18T05:15:17.163Z,73.36
2017-10-18T05:17:43.608Z,73.43
2017-10-18T05:20:10.058Z,73.36
2017-10-18T05:22:36.556Z,73.46
2017-10-18T05:25:03.006Z,72.94
2017-10-18T05:27:29.538Z,72.80
2017-10-18T05:29:55.973Z,72.63
2017-10-18T05:32:22.364Z,72.06
2017-10-18T05:34:48.741Z,71.53
2017-10-18T05:37:15.176Z,71.01
2017-10-18T05:39:42.446Z,70.98
2017-10-18T05:42:09.079Z,71.28
2017-10-18T05:44:35.607Z,71.53
2017-10-18T05:47:01.980Z,71.69
2017-10-18T05:49:28.477Z,71.69
2017-10-18T05:51:55.137Z,71.30
2017-10-18T05:54:21.628Z,71.15
2017-10-18T05:56:48.071Z,71.19
2017-10-18T05:59:14.514Z,70.87
2017-10-18T06:01:40.959Z,70.62
2017-10-18T06:04:07.393Z,70.75
2017-10-18T06:06:33.827Z,70.82
2017-10-18T06:09:00.264Z,70.76
2017-10-18T06:11:26.750Z,70.39
2017-10-18T06:13:53.242Z,70.12
2017-10-18T06:16:20.028Z,69.78
2017-10-18T06:18:46.597Z,69.43
2017-10-18T06:21:13.052Z,69.26
2017-10-18T06:23:41.329Z,68.87
2017-10-18T06:26:07.867Z,68.72
2017-10-18T06:28:34.311Z,68.33
2017-10-18T06:31:00.736Z,67.87
2017-10-18T06:33:27.170Z,68.06
2017-10-18T06:35:53.707Z,67.67
2017-10-18T06:38:20.655Z,67.27
2017-10-18T06:40:47.191Z,66.40
2017-10-18T06:43:13.627Z,66.34
2017-10-18T06:45:40.368Z,66.38
2017-10-18T06:48:06.803Z,66.24
2017-10-18T06:50:33.343Z,66.30
2017-10-18T06:52:59.789Z,65.89
2017-10-18T06:55:26.524Z,65.71
2017-10-18T06:57:53.055Z,65.46
2017-10-18T07:00:19.491Z,65.07
2017-10-18T07:02:46.071Z,65.13
2017-10-18T07:05:12.693Z,64.83
2017-10-18T07:07:39.204Z,64.93
2017-10-18T07:10:05.743Z,64.49
2017-10-18T07:12:32.131Z,64.02
2017-10-18T07:14:58.508Z,63.56
2017-10-18T07:17:24.944Z,62.89
2017-10-18T07:19:51.994Z,62.91
2017-10-18T07:22:18.631Z,62.54
2017-10-18T07:24:45.067Z,62.29
2017-10-18T07:27:11.502Z,61.81
2017-10-18T07:29:38.039Z,60.86
2017-10-18T07:32:04.423Z,61.30
2017-10-18T07:34:30.805Z,60.54
2017-10-18T07:36:57.283Z,60.34
2017-10-18T07:39:23.781Z,59.63
2017-10-18T07:41:50.212Z,58.72
2017-10-18T07:44:16.647Z,58.29
2017-10-18T07:46:43.185Z,57.99
2017-10-18T07:49:09.675Z,57.88
2017-10-18T07:51:36.114Z,58.27
2017-10-18T07:54:02.695Z,58.51
2017-10-18T07:56:29.130Z,57.94
2017-10-18T07:58:55.665Z,57.44
2017-10-18T08:01:22.260Z,56.98
2017-10-18T08:03:48.729Z,56.64
2017-10-18T08:06:15.174Z,56.17
2017-10-18T08:08:41.714Z,55.94
2017-10-18T08:11:08.209Z,55.53
2017-10-18T08:13:34.683Z,55.27
2017-10-18T08:16:01.120Z,54.68
2017-10-18T08:18:27.660Z,53.70
2017-10-18T08:20:54.574Z,53.23
2017-10-18T08:23:21.283Z,52.48
2017-10-18T08:25:47.882Z,52.09
2017-10-18T08:28:14.845Z,51.52
2017-10-18T08:30:41.469Z,51.11
2017-10-18T08:33:07.907Z,50.82
2017-10-18T08:35:34.453Z,50.61
2017-10-18T08:38:01.182Z,50.56
2017-10-18T08:40:27.725Z,50.42
2017-10-18T08:42:54.247Z,50.42
2017-10-18T08:45:20.980Z,50.16
2017-10-18T08:47:47.434Z,49.74
2017-10-18T08:50:13.972Z,49.45
2017-10-18T08:52:40.412Z,49.10
2017-10-18T08:55:06.841Z,48.83
2017-10-18T08:57:33.685Z,48.49
2017-10-18T09:00:00.112Z,48.38
2017-10-18T09:02:26.657Z,47.90
2017-10-18T09:04:53.093Z,48.23
2017-10-18T09:07:19.527Z,48.96
2017-10-18T09:09:46.591Z,48.97
2017-10-18T09:12:13.011Z,48.20
2017-10-18T09:14:39.676Z,47.85
2017-10-18T09:17:06.700Z,47.34
2017-10-18T09:19:33.442Z,46.72
2017-10-18T09:21:59.972Z,47.23
2017-10-18T09:24:26.414Z,47.15
2017-10-18T09:26:52.899Z,47.22
2017-10-18T09:29:19.591Z,46.25
2017-10-18T09:31:46.074Z,46.04
2017-10-18T09:34:12.588Z,46.50
2017-10-18T09:36:39.102Z,46.44
2017-10-18T09:39:05.535Z,46.62
2017-10-18T09:41:31.969Z,47.05
2017-10-18T09:43:58.405Z,47.40
2017-10-18T09:46:25.249Z,46.16
2017-10-18T09:48:51.787Z,46.34
2017-10-18T09:51:18.224Z,46.06
2017-10-18T09:53:44.656Z,46.79
2017-10-18T09:56:11.091Z,47.39
2017-10-18T09:58:37.628Z,47.01
2017-10-18T10:01:04.063Z,47.71
2017-10-18T10:03:30.542Z,47.75
2017-10-18T10:05:57.381Z,47.89
2017-10-18T10:08:23.879Z,47.35
2017-10-18T10:10:51.132Z,46.52
2017-10-18T10:13:17.743Z,45.60
2017-10-18T10:15:44.210Z,44.61
2017-10-18T10:18:11.155Z,44.35
2017-10-18T10:20:37.542Z,44.24
2017-10-18T10:23:04.024Z,44.92
2017-10-18T10:25:30.460Z,45.05
2017-10-18T10:27:57.013Z,44.83
2017-10-18T10:30:23.537Z,44.89
2017-10-18T10:32:49.969Z,44.13
2017-10-18T10:35:16.457Z,43.77
2017-10-18T10:37:42.837Z,43.84
2017-10-18T10:40:09.273Z,43.34
2017-10-18T10:42:35.708Z,43.22
2017-10-18T10:45:02.656Z,43.06
2017-10-18T10:47:29.091Z,43.99
2017-10-18T10:49:55.626Z,44.33
2017-10-18T10:52:22.320Z,43.41
2017-10-18T10:54:48.804Z,41.05
2017-10-18T10:57:15.341Z,41.09
2017-10-18T10:59:41.981Z,40.50
2017-10-18T11:02:08.518Z,40.10
2017-10-18T11:04:35.126Z,37.76
2017-10-18T11:07:01.708Z,37.14
2017-10-18T11:09:28.334Z,35.00
2017-10-18T11:11:54.737Z,34.87
2017-10-18T11:14:21.593Z,34.16
2017-10-18T11:16:48.035Z,35.03
2017-10-18T11:19:14.688Z,33.33
2017-10-18T11:21:41.429Z,33.18
2017-10-18T11:24:07.870Z,31.19
2017-10-18T11:26:34.247Z,30.70
2017-10-18T11:29:01.860Z,29.97
2017-10-18T11:31:28.398Z,29.70
2017-10-18T11:33:54.915Z,29.86
2017-10-18T11:36:21.305Z,29.63
2017-10-18T11:38:48.113Z,29.31
2017-10-18T11:41:14.550Z,30.17
2017-10-18T11:43:40.981Z,30.20
2017-10-18T11:46:07.928Z,29.72
2017-10-18T11:48:34.421Z,28.80
2017-10-18T11:51:00.786Z,28.44
2017-10-18T11:53:27.234Z,27.55
2017-10-18T11:55:54.552Z,27.38
2017-10-18T11:58:21.234Z,27.92
2017-10-18T12:00:47.619Z,26.87
2017-10-18T12:03:14.104Z,26.62
2017-10-18T12:05:40.536Z,26.97
2017-10-18T12:08:07.071Z,27.02
2017-10-18T12:10:33.506Z,26.67
2017-10-18T12:12:59.941Z,26.42
2017-10-18T12:15:26.376Z,26.14
2017-10-18T12:17:52.810Z,27.56
2017-10-18T12:20:19.246Z,27.95
2017-10-18T12:22:46.101Z,27.35
2017-10-18T12:25:12.668Z,26.76
2017-10-18T12:27:39.274Z,26.14
2017-10-18T12:30:06.642Z,25.62
2017-10-18T12:32:33.149Z,26.80
2017-10-18T12:34:59.698Z,27.75
2017-10-18T12:37:26.298Z,28.12
2017-10-18T12:39:52.771Z,27.05
2017-10-18T12:42:19.295Z,25.73
2017-10-18T12:44:45.847Z,24.84
2017-10-18T12:47:12.487Z,25.54
2017-10-18T12:49:39.226Z,24.96
2017-10-18T12:52:05.767Z,23.76
2017-10-18T12:54:32.721Z,23.04
2017-10-18T12:56:59.558Z,24.07
2017-10-18T12:59:26.049Z,23.55
2017-10-18T13:01:52.536Z,24.25
2017-10-18T13:04:19.220Z,24.84
2017-10-18T13:06:45.808Z,24.53
2017-10-18T13:09:12.476Z,23.69
2017-10-18T13:11:39.292Z,23.39
2017-10-18T13:14:05.783Z,23.50
2017-10-18T13:16:32.775Z,23.85
2017-10-18T13:18:59.193Z,24.81
2017-10-18T13:21:25.599Z,24.97
2017-10-18T13:23:52.388Z,25.77
2017-10-18T13:26:18.824Z,25.34
2017-10-18T13:28:45.393Z,25.39
2017-10-18T13:31:12.000Z,24.75
2017-10-18T13:33:38.435Z,25.14
2017-10-18T13:36:04.994Z,25.35
2017-10-18T13:38:31.508Z,26.28
2017-10-18T13:40:58.455Z,26.21
2017-10-18T13:43:25.526Z,26.38
2017-10-18T13:45:52.355Z,26.21
2017-10-18T13:48:19.809Z,26.39
2017-10-18T13:53:21.526Z,26.57
2017-10-18T13:55:48.040Z,27.20
2017-10-18T13:58:16.220Z,27.63
2017-10-18T14:00:42.651Z,27.87
2017-10-18T14:03:09.101Z,28.21
2017-10-18T14:05:35.521Z,28.94
2017-10-18T14:08:02.330Z,29.25
2017-10-18T14:10:28.751Z,29.81
2017-10-18T14:12:56.155Z,29.49
2017-10-18T14:15:22.620Z,29.39
2017-10-18T14:17:49.845Z,29.91
2017-10-18T14:20:16.970Z,29.55
2017-10-18T14:22:43.533Z,28.79
2017-10-18T14:25:09.940Z,28.79
2017-10-18T14:27:36.600Z,28.67
2017-10-18T14:30:03.013Z,29.28
2017-10-18T14:32:29.580Z,29.85
2017-10-18T14:34:55.978Z,30.41
2017-10-18T14:37:22.552Z,30.99
2017-10-18T14:39:49.400Z,31.48
2017-10-18T14:42:16.234Z,31.65
2017-10-18T14:44:42.676Z,31.27
2017-10-18T14:47:09.112Z,32.06
2017-10-18T14:49:35.751Z,32.93
2017-10-18T14:52:02.129Z,33.43
2017-10-18T14:54:28.620Z,34.86
2017-10-18T14:56:55.362Z,34.45
2017-10-18T14:59:21.754Z,34.45
2017-10-18T15:01:48.129Z,35.16
2017-10-18T15:04:14.563Z,35.32
2017-10-18T15:06:41.064Z,37.24
2017-10-18T15:09:07.483Z,38.48
2017-10-18T15:11:33.906Z,38.59
2017-10-18T15:14:00.306Z,38.98
2017-10-18T15:16:28.517Z,39.73
2017-10-18T15:18:55.016Z,40.40
2017-10-18T15:21:21.451Z,40.79
2017-10-18T15:23:47.888Z,41.20
2017-10-18T15:26:14.423Z,41.70
2017-10-18T15:28:40.852Z,42.77
2017-10-18T15:31:07.293Z,43.99
2017-10-18T15:33:33.885Z,43.55
2017-10-18T15:36:00.354Z,44.92
2017-10-18T15:38:26.699Z,44.91
2017-10-18T15:40:53.077Z,45.02
2017-10-18T15:43:19.558Z,45.92
2017-10-18T15:45:46.012Z,45.78
2017-10-18T15:48:12.439Z,46.48
2017-10-18T15:50:38.861Z,46.13
2017-10-18T15:53:05.304Z,45.88
2017-10-18T15:55:31.762Z,46.09
2017-10-18T15:57:59.203Z,46.70
2017-10-18T16:00:25.682Z,46.90
2017-10-18T16:02:52.150Z,46.41
2017-10-18T16:05:18.609Z,46.90
2017-10-18T16:07:45.130Z,47.76
2017-10-18T16:10:11.580Z,47.88
2017-10-18T16:12:38.118Z,48.38
2017-10-18T16:15:04.552Z,47.85
2017-10-18T16:17:30.988Z,47.94
2017-10-18T16:19:57.422Z,48.20
2017-10-18T16:22:23.861Z,48.43
2017-10-18T16:24:50.292Z,48.35
2017-10-18T16:27:16.777Z,48.42
2017-10-18T16:29:43.246Z,48.32
2017-10-18T16:32:09.689Z,48.41
2017-10-18T16:34:36.133Z,48.14
2017-10-18T16:37:02.570Z,48.80
2017-10-18T16:39:29.004Z,48.58
2017-10-18T16:41:55.442Z,47.88
2017-10-18T16:44:21.876Z,47.91
2017-10-18T16:46:48.311Z,48.12
2017-10-18T16:49:14.713Z,47.94
2017-10-18T16:51:41.156Z,48.14
2017-10-18T16:54:07.568Z,48.03
2017-10-18T16:56:33.987Z,48.53
2017-10-18T16:59:00.484Z,48.70
2017-10-18T17:01:26.919Z,48.76
2017-10-18T17:03:53.457Z,49.04
2017-10-18T17:06:19.815Z,48.76
2017-10-18T17:08:46.222Z,48.56
2017-10-18T17:11:12.659Z,49.03
2017-10-18T17:13:39.093Z,49.62
2017-10-18T17:16:05.527Z,49.74
2017-10-18T17:18:31.961Z,49.50
2017-10-18T17:20:58.472Z,49.48
2017-10-18T17:23:24.935Z,50.47
2017-10-18T17:25:51.369Z,50.20
2017-10-18T17:28:17.804Z,50.18
2017-10-18T17:30:44.238Z,50.78
2017-10-18T17:33:10.619Z,51.09
2017-10-18T17:35:37.143Z,51.82
2017-10-18T17:38:03.644Z,52.26
2017-10-18T17:40:30.285Z,52.54
2017-10-18T17:42:56.724Z,52.83
2017-10-18T17:45:23.165Z,53.13
2017-10-18T17:47:50.307Z,53.17
2017-10-18T17:50:16.740Z,53.71
2017-10-18T17:52:43.277Z,53.65
2017-10-18T17:55:09.731Z,54.12
2017-10-18T17:57:36.203Z,54.30
2017-10-18T18:00:02.685Z,54.45
2017-10-18T18:02:29.079Z,55.00
2017-10-18T18:04:55.563Z,55.59
2017-10-18T18:07:22.009Z,55.78
2017-10-18T18:09:48.508Z,56.61
2017-10-18T18:12:14.966Z,57.23
2017-10-18T18:14:41.827Z,56.50
2017-10-18T18:17:08.343Z,56.58
2017-10-18T18:19:34.881Z,56.31
2017-10-18T18:22:01.316Z,57.47
2017-10-18T18:24:27.750Z,58.05
2017-10-18T18:26:54.184Z,58.07
2017-10-18T18:29:20.632Z,58.75
2017-10-18T18:31:47.058Z,58.59
2017-10-18T18:34:13.462Z,58.35
2017-10-18T18:36:39.923Z,58.63
2017-10-18T18:39:06.360Z,58.33
2017-10-18T18:41:32.747Z,59.41
2017-10-18T18:43:59.229Z,59.42
2017-10-18T18:46:25.813Z,60.17
2017-10-18T18:48:52.303Z,59.95
2017-10-18T18:51:19.658Z,60.23
2017-10-18T18:53:46.094Z,60.49
2017-10-18T18:56:12.547Z,60.25
2017-10-18T18:58:38.964Z,60.31
2017-10-18T19:01:05.358Z,60.02
2017-10-18T19:03:31.732Z,59.38
2017-10-18T19:05:58.166Z,58.87
2017-10-18T19:08:24.602Z,59.15
2017-10-18T19:10:51.057Z,59.71
2017-10-18T19:13:17.776Z,60.46
2017-10-18T19:15:44.693Z,60.71
2017-10-18T19:18:11.113Z,60.15
2017-10-18T19:20:37.595Z,59.78
2017-10-18T19:23:04.030Z,59.96
2017-10-18T19:25:30.566Z,59.99
2017-10-18T19:27:57.423Z,59.94
2017-10-18T19:30:23.846Z,60.38
2017-10-18T19:32:50.384Z,60.36
2017-10-18T19:35:16.866Z,60.77
2017-10-18T19:37:43.355Z,61.50
2017-10-18T19:40:09.790Z,61.60
2017-10-18T19:42:36.232Z,61.24
2017-10-18T19:45:02.664Z,60.66
2017-10-18T19:47:29.075Z,60.30
2017-10-18T19:49:55.528Z,60.96
2017-10-18T19:52:21.963Z,61.17
2017-10-18T19:54:48.398Z,61.11
2017-10-18T19:57:14.833Z,61.47
2017-10-18T19:59:41.268Z,60.73
2017-10-18T20:02:07.714Z,59.83
2017-10-18T20:04:34.227Z,60.60
2017-10-18T20:07:00.676Z,60.81
2017-10-18T20:09:27.933Z,60.85
2017-10-18T20:11:54.366Z,61.16
2017-10-18T20:14:20.799Z,61.76
2017-10-18T20:16:47.236Z,62.54
2017-10-18T20:19:13.620Z,62.30
2017-10-18T20:21:40.050Z,62.67
2017-10-18T20:24:06.538Z,62.36
2017-10-18T20:26:32.920Z,61.58
2017-10-18T20:28:59.408Z,62.31
2017-10-18T20:31:25.843Z,62.63
2017-10-18T20:33:52.278Z,62.37
2017-10-18T20:36:18.713Z,62.74
2017-10-18T20:38:45.100Z,63.09
2017-10-18T20:41:11.531Z,63.54
2017-10-18T20:43:38.018Z,63.01
2017-10-18T20:46:04.451Z,62.13
2017-10-18T20:48:30.887Z,61.50
2017-10-18T20:50:57.322Z,62.46
2017-10-18T20:53:23.756Z,63.34
2017-10-18T20:55:50.190Z,62.61
2017-10-18T20:58:16.625Z,61.84
2017-10-18T21:00:43.062Z,62.08
2017-10-18T21:03:09.496Z,61.61
2017-10-18T21:05:35.880Z,61.48
2017-10-18T21:08:02.365Z,61.87
2017-10-18T21:10:29.518Z,63.21
2017-10-18T21:12:55.973Z,62.43
2017-10-18T21:15:22.441Z,62.11
2017-10-18T21:17:49.230Z,62.64
2017-10-18T21:20:15.668Z,62.01
2017-10-18T21:22:42.089Z,62.45
2017-10-18T21:25:08.537Z,62.23
2017-10-18T21:27:35.077Z,61.61
2017-10-18T21:30:01.508Z,62.21
2017-10-18T21:32:27.945Z,63.19
2017-10-18T21:34:54.483Z,62.26
2017-10-18T21:37:20.915Z,61.21
2017-10-18T21:39:47.352Z,62.48
2017-10-18T21:42:13.785Z,62.03
2017-10-18T21:44:40.220Z,61.75
2017-10-18T21:47:06.654Z,63.31
2017-10-18T21:49:33.058Z,63.74
2017-10-18T21:51:59.501Z,62.69
2017-10-18T21:54:25.958Z,63.54
2017-10-18T21:56:52.498Z,63.61
2017-10-18T21:59:18.846Z,63.07
2017-10-18T22:01:45.262Z,63.56
2017-10-18T22:04:11.698Z,62.63
2017-10-18T22:06:38.644Z,62.23
2017-10-18T22:09:05.080Z,64.01
2017-10-18T22:11:31.514Z,62.77
2017-10-18T22:13:57.950Z,62.69
2017-10-18T22:16:24.352Z,61.66
2017-10-18T22:18:50.840Z,62.06
2017-10-18T22:21:17.356Z,61.39
2017-10-18T22:23:43.791Z,62.21
2017-10-18T22:26:10.226Z,62.52
2017-10-18T22:28:36.660Z,63.62
2017-10-18T22:31:03.099Z,63.27
2017-10-18T22:33:29.530Z,60.68
2017-10-18T22:35:56.068Z,63.39
2017-10-18T22:38:22.504Z,65.06
2017-10-18T22:40:48.938Z,64.30
2017-10-18T22:43:15.372Z,62.89
2017-10-18T22:45:41.806Z,63.67
2017-10-18T22:48:08.246Z,63.14
2017-10-18T22:50:34.779Z,62.68
2017-10-18T22:53:01.213Z,64.31
2017-10-18T22:55:27.588Z,62.57
2017-10-18T22:57:54.049Z,61.18
2017-10-18T23:00:20.518Z,61.70
2017-10-18T23:02:47.056Z,63.64
2017-10-18T23:05:13.478Z,61.78
2017-10-18T23:07:39.921Z,63.30
2017-10-18T23:10:06.360Z,64.56
2017-10-18T23:12:32.795Z,63.03
2017-10-18T23:14:59.229Z,64.53
2017-10-18T23:17:25.615Z,63.35
2017-10-18T23:19:52.099Z,62.82
2017-10-18T23:22:18.534Z,63.13
2017-10-18T23:24:44.918Z,62.73
2017-10-18T23:27:11.402Z,61.79
2017-10-18T23:29:37.838Z,63.15
2017-10-18T23:32:04.273Z,63.94
2017-10-18T23:34:30.709Z,61.49
2017-10-18T23:36:57.094Z,60.64
2017-10-18T23:39:23.475Z,62.57
2017-10-18T23:41:49.910Z,62.59
2017-10-18T23:44:16.856Z,61.33
2017-10-18T23:46:43.291Z,61.92
2017-10-18T23:49:09.726Z,64.04
2017-10-18T23:51:36.160Z,64.00
2017-10-18T23:54:02.599Z,61.21
2017-10-18T23:56:29.031Z,59.26
2017-10-18T23:58:55.465Z,61.32
